Time;durP1;ratioP1;P1;durP2;ratioP2;P2;SDS_P1;SDS_P2;PMS_P1;PMS_P2;Temp;Humidity;BMP_temperature;BMP_pressure;BME280_temperature;BME280_humidity;BME280_pressure;Samples;Min_cycle;Max_cycle;Signal;HPM_P1;HPM_P2
2022/04/15 00:01:22;;;;;;;3.33;2.13;;;;;;;;;;4969644;28;20453;-76
2022/04/15 00:04:08;;;;;;;8.02;2.58;;;;;;;;;;4980795;28;20390;-70
2022/04/15 00:06:53;;;;;;;4.63;2.25;;;;;;;;;;4971042;28;20086;-69
2022/04/15 00:09:39;;;;;;;7.00;2.40;;;;;;;;;;4951293;29;20035;-72
2022/04/15 00:12:30;;;;;;;4.35;2.17;;;;;;;;;;4952107;28;20082;-71
2022/04/15 00:15:15;;;;;;;5.97;2.55;;;;;;;;;;4964915;28;20027;-71
2022/04/15 00:18:00;;;;;;;6.20;2.50;;;;;;;;;;4969170;28;20051;-67
2022/04/15 00:20:46;;;;;;;3.03;2.28;;;;;;;;;;4958052;28;20046;-72
2022/04/15 00:23:31;;;;;;;6.45;2.22;;;;;;;;;;4971418;28;20038;-72
2022/04/15 00:26:16;;;;;;;7.15;2.97;;;;;;;;;;4956149;28;20114;-72
2022/04/15 00:29:05;;;;;;;6.70;2.28;;;;;;;;;;4970913;28;20479;-73
2022/04/15 00:31:50;;;;;;;5.07;2.90;;;;;;;;;;4980053;28;20121;-72
2022/04/15 00:34:36;;;;;;;4.80;2.58;;;;;;;;;;4968992;28;20038;-74
2022/04/15 00:37:21;;;;;;;4.15;2.42;;;;;;;;;;4965891;28;20081;-72
2022/04/15 00:40:09;;;;;;;6.68;2.90;;;;;;;;;;4972700;28;20117;-75
2022/04/15 00:42:55;;;;;;;5.22;2.50;;;;;;;;;;4957101;28;20050;-78
2022/04/15 00:45:40;;;;;;;3.22;2.08;;;;;;;;;;4953173;28;20023;-74
2022/04/15 00:48:27;;;;;;;4.30;2.47;;;;;;;;;;4970468;28;20038;-78
2022/04/15 00:51:12;;;;;;;4.43;2.40;;;;;;;;;;4967627;28;20237;-80
2022/04/15 00:53:58;;;;;;;9.38;2.75;;;;;;;;;;4971186;28;20482;-79
2022/04/15 00:56:44;;;;;;;4.13;2.72;;;;;;;;;;4960301;28;20031;-72
2022/04/15 00:59:30;;;;;;;6.65;3.00;;;;;;;;;;4969915;28;20023;-69
2022/04/15 01:02:17;;;;;;;5.53;2.78;;;;;;;;;;4955001;28;20451;-68
2022/04/15 01:05:04;;;;;;;3.97;2.50;;;;;;;;;;4952764;28;20492;-69
2022/04/15 01:07:50;;;;;;;8.15;2.92;;;;;;;;;;4981029;28;20120;-68
2022/04/15 01:10:35;;;;;;;6.97;2.20;;;;;;;;;;4989584;28;20034;-69
2022/04/15 01:13:21;;;;;;;6.00;3.50;;;;;;;;;;4956058;28;20378;-76
2022/04/15 01:16:08;;;;;;;5.55;2.00;;;;;;;;;;4968044;28;20026;-68
2022/04/15 01:18:53;;;;;;;5.25;2.55;;;;;;;;;;4969258;28;20121;-69
2022/04/15 01:21:38;;;;;;;6.47;2.78;;;;;;;;;;4952543;28;20027;-69
2022/04/15 01:24:23;;;;;;;5.15;2.65;;;;;;;;;;4946505;28;20027;-69
2022/04/15 01:27:09;;;;;;;3.70;2.30;;;;;;;;;;4979206;28;20026;-69
2022/04/15 01:29:54;;;;;;;6.22;3.20;;;;;;;;;;4968820;28;20050;-69
2022/04/15 01:32:46;;;;;;;7.07;3.10;;;;;;;;;;4968136;28;20033;-67
2022/04/15 01:35:31;;;;;;;6.82;2.40;;;;;;;;;;4969535;28;20411;-78
2022/04/15 01:38:17;;;;;;;3.88;2.35;;;;;;;;;;4954628;28;20035;-80
2022/04/15 01:41:03;;;;;;;7.50;3.25;;;;;;;;;;4983090;28;20022;-79
2022/04/15 01:43:48;;;;;;;3.17;2.25;;;;;;;;;;4980893;28;20081;-77
2022/04/15 01:46:34;;;;;;;5.55;2.97;;;;;;;;;;4958911;28;20030;-79
2022/04/15 01:49:19;;;;;;;7.05;2.35;;;;;;;;;;4956863;28;20399;-70
2022/04/15 01:52:05;;;;;;;3.80;2.40;;;;;;;;;;4977497;28;20034;-78
2022/04/15 01:54:50;;;;;;;6.97;2.70;;;;;;;;;;4977437;28;20039;-76
2022/04/15 01:57:35;;;;;;;7.65;2.92;;;;;;;;;;4975463;28;20500;-78
2022/04/15 02:00:21;;;;;;;4.78;2.75;;;;;;;;;;4969443;28;20031;-76
2022/04/15 02:03:06;;;;;;;5.30;2.67;;;;;;;;;;4981345;28;20039;-76
2022/04/15 02:05:51;;;;;;;5.97;2.63;;;;;;;;;;4956405;28;20041;-75
2022/04/15 02:08:37;;;;;;;4.25;2.53;;;;;;;;;;4982380;28;20114;-80
2022/04/15 02:11:22;;;;;;;5.13;2.67;;;;;;;;;;4967999;28;20479;-72
2022/04/15 02:14:07;;;;;;;6.32;2.70;;;;;;;;;;4964223;28;20027;-71
2022/04/15 02:16:53;;;;;;;10.57;2.90;;;;;;;;;;4950141;29;20034;-71
2022/04/15 02:19:39;;;;;;;3.70;2.80;;;;;;;;;;4958262;28;20039;-71
2022/04/15 02:22:24;;;;;;;7.45;2.60;;;;;;;;;;4979744;28;20502;-72
2022/04/15 02:25:09;;;;;;;5.45;2.83;;;;;;;;;;4980779;28;20512;-74
2022/04/15 02:27:54;;;;;;;4.00;2.55;;;;;;;;;;4965958;28;20375;-74
2022/04/15 02:30:40;;;;;;;4.45;2.70;;;;;;;;;;4955295;28;20125;-74
2022/04/15 02:33:25;;;;;;;6.28;2.25;;;;;;;;;;4972141;28;20027;-74
2022/04/15 02:36:10;;;;;;;8.82;3.22;;;;;;;;;;4954174;28;20121;-75
2022/04/15 02:38:56;;;;;;;4.95;2.78;;;;;;;;;;4969031;28;20027;-74
2022/04/15 02:41:42;;;;;;;4.93;2.50;;;;;;;;;;4950010;29;20033;-74
2022/04/15 02:44:28;;;;;;;3.95;2.80;;;;;;;;;;4965980;28;20066;-66
2022/04/15 02:47:13;;;;;;;9.63;3.25;;;;;;;;;;4982528;28;20733;-72
2022/04/15 02:49:59;;;;;;;4.45;2.45;;;;;;;;;;4965193;28;20379;-71
2022/04/15 02:52:44;;;;;;;9.90;2.75;;;;;;;;;;4968661;28;20070;-69
2022/04/15 02:55:29;;;;;;;3.20;2.35;;;;;;;;;;4955036;28;20363;-70
2022/04/15 02:58:15;;;;;;;6.00;2.72;;;;;;;;;;4969765;28;20034;-69
2022/04/15 03:01:01;;;;;;;5.13;2.97;;;;;;;;;;4951616;28;20162;-69
2022/04/15 03:03:46;;;;;;;5.47;2.50;;;;;;;;;;4966972;28;20034;-73
2022/04/15 03:06:31;;;;;;;4.95;2.50;;;;;;;;;;4961356;28;20031;-71
2022/04/15 03:09:16;;;;;;;4.63;2.38;;;;;;;;;;4955133;28;20273;-73
2022/04/15 03:12:02;;;;;;;4.20;2.50;;;;;;;;;;4963807;28;20503;-72
2022/04/15 03:14:49;;;;;;;5.25;2.60;;;;;;;;;;4971653;28;20096;-72
2022/04/15 03:17:35;;;;;;;4.95;2.45;;;;;;;;;;4964742;28;20138;-71
2022/04/15 03:20:21;;;;;;;7.20;2.50;;;;;;;;;;4968899;28;20038;-73
2022/04/15 03:23:06;;;;;;;5.35;2.90;;;;;;;;;;4971086;28;20505;-77
2022/04/15 03:25:51;;;;;;;6.00;2.78;;;;;;;;;;4941133;29;20038;-72
2022/04/15 03:28:37;;;;;;;5.57;3.13;;;;;;;;;;4967176;28;20096;-74
2022/04/15 03:31:23;;;;;;;4.15;2.78;;;;;;;;;;4973927;28;20101;-71
2022/04/15 03:34:08;;;;;;;5.85;2.55;;;;;;;;;;4978800;28;20113;-71
2022/04/15 03:36:53;;;;;;;5.45;2.60;;;;;;;;;;4969827;28;20088;-73
2022/04/15 03:39:38;;;;;;;3.65;2.47;;;;;;;;;;4971264;28;20490;-74
2022/04/15 03:42:24;;;;;;;6.88;3.03;;;;;;;;;;4983666;28;20023;-73
2022/04/15 03:45:11;;;;;;;5.82;3.03;;;;;;;;;;4958312;28;20400;-73
2022/04/15 03:47:57;;;;;;;4.63;2.95;;;;;;;;;;4966004;28;20450;-76
2022/04/15 03:50:42;;;;;;;5.38;2.72;;;;;;;;;;4984311;28;20035;-76
2022/04/15 03:53:28;;;;;;;4.47;2.70;;;;;;;;;;4970541;28;20390;-74
2022/04/15 03:56:13;;;;;;;4.90;2.65;;;;;;;;;;4971584;28;20459;-74
2022/04/15 03:58:58;;;;;;;5.13;3.20;;;;;;;;;;4981871;28;20026;-77
2022/04/15 04:01:44;;;;;;;8.50;3.10;;;;;;;;;;4975177;23;20059;-72
2022/04/15 04:04:29;;;;;;;6.13;2.65;;;;;;;;;;5007580;28;20041;-71
2022/04/15 04:07:15;;;;;;;8.73;3.17;;;;;;;;;;5002230;28;20037;-72
2022/04/15 04:10:00;;;;;;;6.00;3.80;;;;;;;;;;4995695;28;20038;-73
2022/04/15 04:12:45;;;;;;;6.28;2.67;;;;;;;;;;4997243;28;20029;-73
2022/04/15 04:15:31;;;;;;;4.72;2.95;;;;;;;;;;4982344;28;20022;-71
2022/04/15 04:18:20;;;;;;;4.72;2.70;;;;;;;;;;4993536;28;20038;-76
2022/04/15 04:21:06;;;;;;;5.28;3.22;;;;;;;;;;4995902;28;20042;-69
2022/04/15 04:23:52;;;;;;;3.55;3.00;;;;;;;;;;5009019;28;20037;-71
2022/04/15 04:26:37;;;;;;;6.30;2.80;;;;;;;;;;5023239;28;20034;-72
2022/04/15 04:29:23;;;;;;;4.25;2.88;;;;;;;;;;4990469;28;20050;-70
2022/04/15 04:32:09;;;;;;;4.82;2.75;;;;;;;;;;5009930;28;20033;-69
2022/04/15 04:34:54;;;;;;;6.28;2.80;;;;;;;;;;4995995;28;20061;-70
2022/04/15 04:37:39;;;;;;;9.88;3.08;;;;;;;;;;5007826;28;20029;-71
2022/04/15 04:40:24;;;;;;;2.80;2.47;;;;;;;;;;4987910;28;20508;-73
2022/04/15 04:43:10;;;;;;;7.57;2.55;;;;;;;;;;4978508;28;20059;-72
2022/04/15 04:45:55;;;;;;;7.20;2.47;;;;;;;;;;4979791;28;20037;-72
2022/04/15 04:48:40;;;;;;;8.18;3.10;;;;;;;;;;4992982;28;20026;-71
2022/04/15 04:51:26;;;;;;;7.28;2.75;;;;;;;;;;4978201;28;20536;-76
2022/04/15 04:54:11;;;;;;;4.00;2.95;;;;;;;;;;5009760;28;20557;-71
2022/04/15 04:56:57;;;;;;;9.02;3.60;;;;;;;;;;4984350;28;20037;-65
2022/04/15 04:59:42;;;;;;;4.18;2.53;;;;;;;;;;4994742;28;20037;-63
2022/04/15 05:02:27;;;;;;;8.65;3.40;;;;;;;;;;4979835;28;20490;-65
2022/04/15 05:05:13;;;;;;;5.05;3.00;;;;;;;;;;4972047;28;20038;-62
2022/04/15 05:07:58;;;;;;;8.52;4.07;;;;;;;;;;5000155;28;20070;-62
2022/04/15 05:10:44;;;;;;;7.72;3.15;;;;;;;;;;4984625;28;20076;-62
2022/04/15 05:13:29;;;;;;;6.07;3.15;;;;;;;;;;4979683;28;20031;-64
2022/04/15 05:16:15;;;;;;;5.15;2.80;;;;;;;;;;4984861;28;20042;-73
2022/04/15 05:19:00;;;;;;;8.07;3.40;;;;;;;;;;4976114;28;20486;-72
2022/04/15 05:21:45;;;;;;;6.32;3.05;;;;;;;;;;4974053;28;20038;-74
2022/04/15 05:24:31;;;;;;;8.32;3.72;;;;;;;;;;4986117;28;20027;-74
2022/04/15 05:27:16;;;;;;;5.63;3.28;;;;;;;;;;4971020;28;20034;-72
2022/04/15 05:30:02;;;;;;;6.65;3.30;;;;;;;;;;4970109;28;20550;-72
2022/04/15 05:32:47;;;;;;;6.53;4.13;;;;;;;;;;4986031;28;20494;-72
2022/04/15 05:35:32;;;;;;;7.57;3.47;;;;;;;;;;4989037;28;20030;-74
2022/04/15 05:38:18;;;;;;;5.20;3.50;;;;;;;;;;4972565;28;20169;-74
2022/04/15 05:41:05;;;;;;;7.70;3.35;;;;;;;;;;4991219;28;20042;-75
2022/04/15 05:43:51;;;;;;;7.20;3.83;;;;;;;;;;4987073;28;20026;-74
2022/04/15 05:46:37;;;;;;;6.22;3.70;;;;;;;;;;4992045;28;20079;-73
2022/04/15 05:49:24;;;;;;;6.10;3.47;;;;;;;;;;4983023;28;20034;-66
2022/04/15 05:52:09;;;;;;;5.25;3.78;;;;;;;;;;4960180;28;20198;-64
2022/04/15 05:54:55;;;;;;;8.95;4.18;;;;;;;;;;5002746;28;20026;-63
2022/04/15 05:57:40;;;;;;;5.75;3.70;;;;;;;;;;4992051;28;20026;-66
2022/04/15 06:00:25;;;;;;;6.05;4.13;;;;;;;;;;4974325;28;20117;-64
2022/04/15 06:03:11;;;;;;;28.58;15.65;;;;;;;;;;4978667;28;20046;-65
2022/04/15 06:05:56;;;;;;;6.63;3.80;;;;;;;;;;4983133;28;20255;-65
2022/04/15 06:08:42;;;;;;;5.97;3.80;;;;;;;;;;4985810;28;20019;-68
2022/04/15 06:11:27;;;;;;;7.72;3.42;;;;;;;;;;4978939;28;20030;-72
2022/04/15 06:14:12;;;;;;;5.97;3.40;;;;;;;;;;4970348;28;20058;-70
2022/04/15 06:16:58;;;;;;;6.90;3.72;;;;;;;;;;5002643;28;20038;-71
2022/04/15 06:19:43;;;;;;;8.73;3.78;;;;;;;;;;4985507;28;20484;-70
2022/04/15 06:22:28;;;;;;;8.05;3.63;;;;;;;;;;5001781;28;20026;-71
2022/04/15 06:25:13;;;;;;;4.93;3.28;;;;;;;;;;4996324;28;20026;-71
2022/04/15 06:27:58;;;;;;;6.28;3.22;;;;;;;;;;4978299;28;20113;-73
2022/04/15 06:30:44;;;;;;;7.40;3.35;;;;;;;;;;4969338;28;20113;-71
2022/04/15 06:33:29;;;;;;;4.32;2.72;;;;;;;;;;4990738;28;20042;-73
2022/04/15 06:36:14;;;;;;;7.55;3.20;;;;;;;;;;4982875;28;20038;-72
2022/04/15 06:38:59;;;;;;;5.85;3.50;;;;;;;;;;4977042;28;20708;-71
2022/04/15 06:41:45;;;;;;;4.70;3.28;;;;;;;;;;4984357;28;20084;-69
2022/04/15 06:44:30;;;;;;;7.72;3.47;;;;;;;;;;4991263;28;20154;-69
2022/04/15 06:47:16;;;;;;;4.30;3.00;;;;;;;;;;4974502;28;20633;-64
2022/04/15 06:50:01;;;;;;;5.50;2.55;;;;;;;;;;4996273;28;20034;-65
2022/04/15 06:52:47;;;;;;;6.13;3.38;;;;;;;;;;4997405;28;20046;-67
2022/04/15 06:55:32;;;;;;;5.07;3.28;;;;;;;;;;5002476;28;20030;-64
2022/04/15 06:58:18;;;;;;;5.65;3.40;;;;;;;;;;4986177;28;20454;-64
2022/04/15 07:01:03;;;;;;;4.97;3.20;;;;;;;;;;4985775;28;20092;-64
2022/04/15 07:03:48;;;;;;;5.40;3.17;;;;;;;;;;4981502;28;20073;-70
2022/04/15 07:06:34;;;;;;;8.55;5.05;;;;;;;;;;4983755;28;20031;-64
2022/04/15 07:09:19;;;;;;;8.60;4.95;;;;;;;;;;4972879;28;20110;-64
2022/04/15 07:12:05;;;;;;;7.97;5.20;;;;;;;;;;5004940;28;20038;-65
2022/04/15 07:14:50;;;;;;;15.60;7.50;;;;;;;;;;4991391;28;20529;-64
2022/04/15 07:17:35;;;;;;;10.05;6.32;;;;;;;;;;4991683;28;20041;-64
2022/04/15 07:20:21;;;;;;;10.15;6.43;;;;;;;;;;4997260;28;20038;-66
2022/04/15 07:23:06;;;;;;;10.95;7.70;;;;;;;;;;4972373;28;20023;-73
2022/04/15 07:25:51;;;;;;;11.00;8.13;;;;;;;;;;4978167;28;20089;-75
2022/04/15 07:28:36;;;;;;;10.80;7.28;;;;;;;;;;4991400;28;20030;-73
2022/04/15 07:31:22;;;;;;;13.65;7.90;;;;;;;;;;4978166;28;20442;-73
2022/04/15 07:34:07;;;;;;;13.88;9.90;;;;;;;;;;4980987;28;20034;-66
2022/04/15 07:36:57;;;;;;;24.20;10.93;;;;;;;;;;4980372;28;20049;-66
2022/04/15 07:39:42;;;;;;;;;;;;;;;;;;4985540;28;20034;-67
2022/04/15 07:42:27;;;;;;;13.43;9.88;;;;;;;;;;4983601;28;19914;-65
2022/04/15 07:45:12;;;;;;;13.32;9.25;;;;;;;;;;4990719;28;20113;-61
2022/04/15 07:47:57;;;;;;;14.60;9.20;;;;;;;;;;4994506;28;20096;-60
2022/04/15 07:50:45;;;;;;;13.00;9.30;;;;;;;;;;4971869;28;20026;-61
2022/04/15 07:53:30;;;;;;;14.95;9.52;;;;;;;;;;4972279;28;20097;-61
2022/04/15 07:56:16;;;;;;;13.38;9.18;;;;;;;;;;4986268;28;20046;-61
2022/04/15 07:59:01;;;;;;;15.38;10.43;;;;;;;;;;4985803;28;20037;-69
2022/04/15 08:01:47;;;;;;;14.50;11.55;;;;;;;;;;4996336;28;20441;-69
2022/04/15 08:04:34;;;;;;;12.75;10.30;;;;;;;;;;4995398;28;20193;-68
2022/04/15 08:07:19;;;;;;;12.80;9.20;;;;;;;;;;4979131;28;20110;-66
2022/04/15 08:10:06;;;;;;;12.43;9.88;;;;;;;;;;4998403;28;20092;-69
2022/04/15 08:12:51;;;;;;;14.20;10.50;;;;;;;;;;5002595;28;20439;-68
2022/04/15 08:15:36;;;;;;;20.15;11.52;;;;;;;;;;4980201;28;20026;-69
2022/04/15 08:18:22;;;;;;;12.20;10.00;;;;;;;;;;4976819;28;20030;-62
2022/04/15 08:21:08;;;;;;;14.05;9.90;;;;;;;;;;4984541;28;20088;-64
2022/04/15 08:23:53;;;;;;;13.07;9.43;;;;;;;;;;4984875;28;20026;-64
2022/04/15 08:26:39;;;;;;;16.80;11.65;;;;;;;;;;4988342;28;20092;-63
2022/04/15 08:29:25;;;;;;;13.07;9.98;;;;;;;;;;4985354;28;20375;-65
2022/04/15 08:32:10;;;;;;;12.77;10.18;;;;;;;;;;4992484;28;20075;-64
2022/04/15 08:34:55;;;;;;;13.73;10.80;;;;;;;;;;4985196;28;20500;-64
2022/04/15 08:37:40;;;;;;;18.88;11.75;;;;;;;;;;4988734;28;20033;-62
2022/04/15 08:40:34;;;;;;;14.15;10.07;;;;;;;;;;4993432;28;20382;-63
2022/04/15 08:43:19;;;;;;;14.32;9.98;;;;;;;;;;5005596;28;20045;-64
2022/04/15 08:46:05;;;;;;;16.23;11.40;;;;;;;;;;4979490;28;20096;-67
2022/04/15 08:48:51;;;;;;;13.65;10.48;;;;;;;;;;4990524;28;20084;-66
2022/04/15 08:51:36;;;;;;;15.35;12.25;;;;;;;;;;5002844;28;20038;-66
2022/04/15 08:54:21;;;;;;;16.27;11.45;;;;;;;;;;4985135;28;20038;-68
2022/04/15 08:57:07;;;;;;;11.57;9.70;;;;;;;;;;4988004;28;20100;-75
2022/04/15 08:59:53;;;;;;;18.20;10.85;;;;;;;;;;4986383;28;20066;-75
2022/04/15 09:02:38;;;;;;;12.57;10.23;;;;;;;;;;4988196;28;20052;-75
2022/04/15 09:05:25;;;;;;;15.20;12.10;;;;;;;;;;4987100;28;20549;-75
2022/04/15 09:08:11;;;;;;;13.35;9.70;;;;;;;;;;4993872;28;20417;-73
2022/04/15 09:10:57;;;;;;;14.60;11.07;;;;;;;;;;4981210;28;20037;-72
2022/04/15 09:13:42;;;;;;;11.60;10.27;;;;;;;;;;5007472;28;20149;-79
2022/04/15 09:16:27;;;;;;;14.57;10.48;;;;;;;;;;4986863;28;20045;-71
2022/04/15 09:19:13;;;;;;;12.38;11.07;;;;;;;;;;4977230;28;20034;-68
2022/04/15 09:21:59;;;;;;;15.32;11.73;;;;;;;;;;5007420;28;20038;-64
2022/04/15 09:24:46;;;;;;;15.10;12.27;;;;;;;;;;4976027;28;20029;-69
2022/04/15 09:27:32;;;;;;;15.60;12.20;;;;;;;;;;4988785;28;20399;-66
2022/04/15 09:30:17;;;;;;;14.88;12.48;;;;;;;;;;4990830;28;20410;-73
2022/04/15 09:33:03;;;;;;;13.73;10.32;;;;;;;;;;4980433;28;20049;-73
2022/04/15 09:35:54;;;;;;;13.13;10.05;;;;;;;;;;5007760;28;20085;-75
2022/04/15 09:38:40;;;;;;;12.80;10.13;;;;;;;;;;4975617;28;20038;-73
2022/04/15 09:41:27;;;;;;;14.30;11.73;;;;;;;;;;4996699;28;20034;-74
2022/04/15 09:44:12;;;;;;;12.13;9.65;;;;;;;;;;4994953;28;20061;-75
2022/04/15 09:47:03;;;;;;;10.80;9.63;;;;;;;;;;4987336;28;20512;-76
2022/04/15 09:49:48;;;;;;;14.30;11.88;;;;;;;;;;4992775;28;20540;-68
2022/04/15 09:52:34;;;;;;;13.07;10.10;;;;;;;;;;4980921;28;20034;-70
2022/04/15 09:55:25;;;;;;;14.75;11.43;;;;;;;;;;5007410;28;20465;-69
2022/04/15 09:58:12;;;;;;;12.23;10.15;;;;;;;;;;4989671;28;20076;-72
2022/04/15 10:00:58;;;;;;;11.23;8.13;;;;;;;;;;5006951;28;20048;-69
2022/04/15 10:03:45;;;;;;;12.05;9.68;;;;;;;;;;5002627;28;20434;-71
2022/04/15 10:06:30;;;;;;;9.48;7.60;;;;;;;;;;4993705;28;20064;-74
2022/04/15 10:09:16;;;;;;;9.95;8.60;;;;;;;;;;4985373;28;20230;-69
2022/04/15 10:12:01;;;;;;;11.32;8.85;;;;;;;;;;4980662;28;20093;-70
2022/04/15 10:14:47;;;;;;;12.15;9.82;;;;;;;;;;4985455;28;20533;-69
2022/04/15 10:17:32;;;;;;;11.18;8.35;;;;;;;;;;5011297;28;20022;-71
2022/04/15 10:20:18;;;;;;;9.98;8.05;;;;;;;;;;4998690;28;20042;-69
2022/04/15 10:23:05;;;;;;;11.98;7.82;;;;;;;;;;4990377;28;20030;-69
2022/04/15 10:25:51;;;;;;;10.52;9.30;;;;;;;;;;4979494;28;20032;-74
2022/04/15 10:28:42;;;;;;;10.75;8.18;;;;;;;;;;5004331;28;20034;-76
2022/04/15 10:31:35;;;;;;;11.88;8.75;;;;;;;;;;4980976;28;20521;-74
2022/04/15 10:34:21;;;;;;;9.73;7.60;;;;;;;;;;4980030;28;20118;-75
2022/04/15 10:37:06;;;;;;;10.73;8.35;;;;;;;;;;4992681;28;20112;-74
2022/04/15 10:39:52;;;;;;;8.85;7.47;;;;;;;;;;4982668;28;20034;-74
2022/04/15 10:42:43;;;;;;;11.38;7.25;;;;;;;;;;4984108;28;20026;-75
2022/04/15 10:45:29;;;;;;;10.80;7.95;;;;;;;;;;4990001;28;20058;-71
2022/04/15 10:48:27;;;;;;;9.05;6.72;;;;;;;;;;5001750;28;20088;-73
2022/04/15 10:51:12;;;;;;;12.52;8.75;;;;;;;;;;4998458;28;20045;-74
2022/04/15 10:54:18;;;;;;;11.02;7.85;;;;;;;;;;4992261;28;20042;-74
2022/04/15 10:57:04;;;;;;;10.02;7.57;;;;;;;;;;4978709;28;20037;-73
2022/04/15 11:03:02;;;;;;;9.77;6.68;;;;;;;;;;4989546;28;20041;-70
2022/04/15 11:05:48;;;;;;;10.35;7.63;;;;;;;;;;4980387;28;20232;-65
2022/04/15 11:08:46;;;;;;;9.52;7.68;;;;;;;;;;4985658;28;20025;-64
2022/04/15 11:11:33;;;;;;;9.93;6.40;;;;;;;;;;4979506;28;20084;-65
2022/04/15 11:14:31;;;;;;;12.70;8.10;;;;;;;;;;4994702;28;20547;-66
2022/04/15 11:17:16;;;;;;;10.13;7.53;;;;;;;;;;4978505;28;20022;-66
2022/04/15 11:20:02;;;;;;;12.40;8.73;;;;;;;;;;4990118;28;20029;-65
2022/04/15 11:22:49;;;;;;;10.90;7.50;;;;;;;;;;4978531;28;20050;-74
2022/04/15 11:25:40;;;;;;;9.45;7.15;;;;;;;;;;4978458;28;20030;-69
2022/04/15 11:28:26;;;;;;;9.55;6.97;;;;;;;;;;4979151;28;20720;-69
2022/04/15 11:31:31;;;;;;;9.45;6.97;;;;;;;;;;4978332;28;20406;-72
2022/04/15 11:34:17;;;;;;;9.73;8.05;;;;;;;;;;5004845;28;20389;-69
2022/04/15 11:37:04;;;;;;;10.45;7.07;;;;;;;;;;5005252;28;20026;-69
2022/04/15 11:39:49;;;;;;;11.57;6.60;;;;;;;;;;4996416;28;20061;-71
2022/04/15 11:42:34;;;;;;;10.00;8.35;;;;;;;;;;4998033;28;20474;-69
2022/04/15 11:45:29;;;;;;;13.50;7.10;;;;;;;;;;4972476;28;20377;-70
2022/04/15 11:48:16;;;;;;;11.68;7.78;;;;;;;;;;4997223;28;20054;-69
2022/04/15 11:51:01;;;;;;;11.32;8.32;;;;;;;;;;4999524;28;20022;-70
2022/04/15 11:53:46;;;;;;;13.95;7.70;;;;;;;;;;4991409;28;20038;-69
2022/04/15 11:56:34;;;;;;;12.35;7.32;;;;;;;;;;4970303;28;20022;-69
2022/04/15 11:59:19;;;;;;;13.57;9.55;;;;;;;;;;5008827;28;20424;-72
2022/04/15 12:02:04;;;;;;;12.50;7.78;;;;;;;;;;5009531;28;20038;-70
2022/04/15 12:04:56;;;;;;;9.73;6.13;;;;;;;;;;5010627;28;20042;-70
2022/04/15 12:07:42;;;;;;;10.45;5.75;;;;;;;;;;5009150;28;20040;-70
2022/04/15 12:10:29;;;;;;;7.93;5.18;;;;;;;;;;4997285;28;20421;-70
2022/04/15 12:13:15;;;;;;;9.82;6.18;;;;;;;;;;4969121;28;20510;-71
2022/04/15 12:16:01;;;;;;;12.38;6.60;;;;;;;;;;4992369;28;20339;-66
2022/04/15 12:18:46;;;;;;;8.48;5.72;;;;;;;;;;4963944;28;20492;-65
2022/04/15 12:21:32;;;;;;;9.98;7.18;;;;;;;;;;4987288;28;20696;-66
2022/04/15 12:24:17;;;;;;;11.43;7.22;;;;;;;;;;4978404;28;20026;-68
2022/04/15 12:27:04;;;;;;;13.20;7.25;;;;;;;;;;4964118;28;20056;-67
2022/04/15 12:29:54;;;;;;;10.85;6.70;;;;;;;;;;4996099;28;20137;-66
2022/04/15 12:32:40;;;;;;;11.95;7.35;;;;;;;;;;4993691;28;20026;-65
2022/04/15 12:35:25;;;;;;;14.73;8.88;;;;;;;;;;4996449;28;20124;-75
2022/04/15 12:38:10;;;;;;;13.10;10.45;;;;;;;;;;4988561;28;20030;-72
2022/04/15 12:41:09;;;;;;;12.50;7.70;;;;;;;;;;4976632;28;20397;-75
2022/04/15 12:44:14;;;;;;;10.97;7.93;;;;;;;;;;5000752;28;20037;-73
2022/04/15 12:47:02;;;;;;;9.15;6.60;;;;;;;;;;4977838;28;20218;-71
2022/04/15 12:49:47;;;;;;;10.82;5.97;;;;;;;;;;4990252;28;20149;-72
2022/04/15 12:52:33;;;;;;;9.25;5.82;;;;;;;;;;4976767;28;20437;-69
2022/04/15 12:55:24;;;;;;;7.68;5.00;;;;;;;;;;4990107;28;20026;-67
2022/04/15 12:58:15;;;;;;;9.38;4.30;;;;;;;;;;4985499;28;20405;-67
2022/04/15 13:01:01;;;;;;;5.90;4.47;;;;;;;;;;4995730;28;20030;-69
2022/04/15 13:03:50;;;;;;;8.43;5.40;;;;;;;;;;4992002;28;20425;-69
2022/04/15 13:06:35;;;;;;;8.77;5.35;;;;;;;;;;4976467;28;20117;-69
2022/04/15 13:09:23;;;;;;;8.20;5.10;;;;;;;;;;4974636;28;20169;-70
2022/04/15 13:12:08;;;;;;;11.20;5.68;;;;;;;;;;4995701;28;20127;-67
2022/04/15 13:14:54;;;;;;;6.32;4.32;;;;;;;;;;4991719;28;20030;-71
2022/04/15 13:17:39;;;;;;;5.32;3.90;;;;;;;;;;4989827;28;20374;-69
2022/04/15 13:20:24;;;;;;;9.10;4.78;;;;;;;;;;5001292;28;20176;-69
2022/04/15 13:23:10;;;;;;;8.65;4.90;;;;;;;;;;4982582;28;20230;-68
2022/04/15 13:25:55;;;;;;;8.95;4.85;;;;;;;;;;4980415;28;20027;-70
2022/04/15 13:28:41;;;;;;;9.65;5.55;;;;;;;;;;4977375;28;20076;-69
2022/04/15 13:31:26;;;;;;;9.75;5.30;;;;;;;;;;4976154;28;20081;-70
2022/04/15 13:34:12;;;;;;;10.48;6.28;;;;;;;;;;4962417;28;20033;-75
2022/04/15 13:36:57;;;;;;;8.30;5.70;;;;;;;;;;4981578;28;20045;-73
2022/04/15 13:39:42;;;;;;;10.38;5.65;;;;;;;;;;4994176;28;20520;-74
2022/04/15 13:42:28;;;;;;;9.75;6.82;;;;;;;;;;4974941;28;20124;-73
2022/04/15 13:45:14;;;;;;;10.68;6.55;;;;;;;;;;4983459;28;20485;-74
2022/04/15 13:47:59;;;;;;;6.95;4.97;;;;;;;;;;4978412;28;20030;-69
2022/04/15 13:50:44;;;;;;;10.90;5.13;;;;;;;;;;4980319;28;20482;-74
2022/04/15 13:56:41;;;;;;;11.50;6.65;;;;;;;;;;4994000;28;20022;-74
2022/04/15 13:59:26;;;;;;;8.13;5.35;;;;;;;;;;4981364;28;20026;-74
2022/04/15 14:02:12;;;;;;;10.18;5.15;;;;;;;;;;4988681;28;20033;-73
2022/04/15 14:04:58;;;;;;;8.52;5.13;;;;;;;;;;4995361;28;20050;-73
2022/04/15 14:07:44;;;;;;;8.35;4.85;;;;;;;;;;4993549;28;20378;-72
2022/04/15 14:10:29;;;;;;;7.57;5.35;;;;;;;;;;5038846;22;20049;-77
2022/04/15 14:13:15;;;;;;;9.00;6.45;;;;;;;;;;5034266;28;20113;-77
2022/04/15 14:16:00;;;;;;;10.57;5.63;;;;;;;;;;5005900;28;20107;-78
2022/04/15 14:18:45;;;;;;;14.20;5.03;;;;;;;;;;5000972;28;20043;-78
2022/04/15 14:21:32;;;;;;;7.28;4.80;;;;;;;;;;5022564;28;20039;-78
2022/04/15 14:24:17;;;;;;;9.13;4.65;;;;;;;;;;5020677;28;20028;-60
2022/04/15 14:27:03;;;;;;;9.30;5.00;;;;;;;;;;5017320;28;20477;-66
2022/04/15 14:29:49;;;;;;;8.77;4.78;;;;;;;;;;5034453;28;20083;-69
2022/04/15 14:32:34;;;;;;;7.68;4.85;;;;;;;;;;5026218;28;20033;-70
2022/04/15 14:35:19;;;;;;;8.43;5.07;;;;;;;;;;5047915;28;20117;-73
2022/04/15 14:38:04;;;;;;;10.10;5.55;;;;;;;;;;5032059;28;20082;-70
2022/04/15 14:40:50;;;;;;;8.90;5.10;;;;;;;;;;5033929;28;20037;-70
2022/04/15 14:43:36;;;;;;;8.93;4.70;;;;;;;;;;5019857;28;20509;-77
2022/04/15 14:46:22;;;;;;;8.20;5.03;;;;;;;;;;5020120;28;20036;-66
2022/04/15 14:49:07;;;;;;;9.10;5.25;;;;;;;;;;5017710;28;20079;-66
2022/04/15 14:51:52;;;;;;;7.30;4.47;;;;;;;;;;5034371;28;20508;-69
2022/04/15 14:54:38;;;;;;;7.10;4.53;;;;;;;;;;5018199;28;20430;-64
2022/04/15 14:57:23;;;;;;;8.98;5.15;;;;;;;;;;5015096;28;20025;-64
2022/04/15 15:00:09;;;;;;;8.15;4.72;;;;;;;;;;5030266;28;20044;-66
2022/04/15 15:02:54;;;;;;;6.20;3.70;;;;;;;;;;5036040;28;20480;-65
2022/04/15 15:05:40;;;;;;;9.75;5.03;;;;;;;;;;4998420;28;20052;-75
2022/04/15 15:08:26;;;;;;;7.38;4.45;;;;;;;;;;4987603;28;20418;-75
2022/04/15 15:11:11;;;;;;;9.48;5.25;;;;;;;;;;4998392;28;20042;-74
2022/04/15 15:13:57;;;;;;;7.15;4.78;;;;;;;;;;5002639;28;20057;-74
2022/04/15 15:16:42;;;;;;;8.05;4.72;;;;;;;;;;4984246;28;20026;-75
2022/04/15 15:19:27;;;;;;;8.00;4.60;;;;;;;;;;5000150;28;20090;-70
2022/04/15 15:22:13;;;;;;;8.20;3.97;;;;;;;;;;5020572;28;20512;-66
2022/04/15 15:31:06;;;;;;;14.93;3.92;;;;;;;;;;5023333;28;20033;-71
2022/04/15 15:33:52;;;;;;;7.97;4.20;;;;;;;;;;5011493;28;20037;-69
2022/04/15 15:36:37;;;;;;;5.32;3.60;;;;;;;;;;5011161;28;20485;-71
2022/04/15 15:39:22;;;;;;;5.22;3.40;;;;;;;;;;4995369;28;20408;-65
2022/04/15 15:42:08;;;;;;;5.00;3.28;;;;;;;;;;4999042;28;20089;-70
2022/04/15 15:44:53;;;;;;;6.38;2.85;;;;;;;;;;4977580;28;20039;-71
2022/04/15 15:47:39;;;;;;;6.70;3.10;;;;;;;;;;4991283;28;20039;-70
2022/04/15 15:50:24;;;;;;;4.25;2.70;;;;;;;;;;4990968;28;20026;-70
2022/04/15 15:53:10;;;;;;;6.70;2.65;;;;;;;;;;4972017;28;20081;-70
2022/04/15 15:55:55;;;;;;;3.78;2.40;;;;;;;;;;4979583;28;20069;-70
2022/04/15 15:58:40;;;;;;;4.13;2.72;;;;;;;;;;5000857;28;20026;-74
2022/04/15 16:01:26;;;;;;;4.05;2.72;;;;;;;;;;4993931;28;20069;-74
2022/04/15 16:04:11;;;;;;;3.58;2.65;;;;;;;;;;4990774;28;20213;-74
2022/04/15 16:06:56;;;;;;;4.38;2.40;;;;;;;;;;4990611;28;20072;-76
2022/04/15 16:09:43;;;;;;;4.63;1.83;;;;;;;;;;4977581;28;20030;-75
2022/04/15 16:12:28;;;;;;;2.88;1.95;;;;;;;;;;4987155;28;20106;-73
2022/04/15 16:15:14;;;;;;;4.32;2.25;;;;;;;;;;4990817;28;20042;-65
2022/04/15 16:17:59;;;;;;;5.18;2.88;;;;;;;;;;4990051;28;20027;-70
2022/04/15 16:20:44;;;;;;;3.55;2.10;;;;;;;;;;4992103;28;20034;-72
2022/04/15 16:23:29;;;;;;;5.95;2.38;;;;;;;;;;4975130;28;20038;-70
2022/04/15 16:26:15;;;;;;;4.47;2.42;;;;;;;;;;4990215;28;20377;-71
2022/04/15 16:29:02;;;;;;;3.17;2.13;;;;;;;;;;5003989;28;20030;-68
2022/04/15 16:31:47;;;;;;;3.30;2.00;;;;;;;;;;4990219;28;20029;-71
2022/04/15 16:34:33;;;;;;;7.78;2.75;;;;;;;;;;4990320;28;20038;-76
2022/04/15 16:37:18;;;;;;;7.65;2.40;;;;;;;;;;5003267;28;20044;-74
2022/04/15 16:40:04;;;;;;;3.08;2.17;;;;;;;;;;4990177;28;20427;-74
2022/04/15 16:42:49;;;;;;;6.07;2.20;;;;;;;;;;4995416;28;20042;-72